KALM/ALM METAR and TAF weather

Enter ICAO airport designator
Station Type Date Time Source
KALM METAR 2019/08/22 03:15 UTC NOAA

KALM 220315Z AUTO 06012KT 10SM OVC100 24/14 A3009 RMK AO2


Station Type Date Time Source
KALM Decoded METAR 2019/08/22 03:15 UTC NOAA

Station name not available
Aug 21, 2019 - 11:15 PM EDT / 2019.08.22 0315 UTC
Wind: from the ENE (060 degrees) at 14 MPH (12 KT):0
Visibility: 10 mile(s):0
Sky conditions: overcast
Temperature: 75 F (24 C)
Dew Point: 57 F (14 C)
Relative Humidity: 53%
Pressure (altimeter): 30.09 in. Hg (1018 hPa)
ob: KALM 220315Z AUTO 06012KT 10SM OVC100 24/14 A3009 RMK AO2
cycle: 3

Station Type Date Time Source
KALM TAF UTC NOAA

Error!

Example: see airport list